createdAt,value
2023-04-07T00:00:37.538Z,12.30
2023-04-07T00:03:09.888Z,12.30
2023-04-07T00:05:37.381Z,12.30
2023-04-07T00:08:04.557Z,12.30
2023-04-07T00:10:33.781Z,12.30
2023-04-07T00:13:01.022Z,12.30
2023-04-07T00:15:35.330Z,12.20
2023-04-07T00:18:04.661Z,12.20
2023-04-07T00:20:33.916Z,12.20
2023-04-07T00:23:01.123Z,12.20
2023-04-07T00:25:30.566Z,12.20
2023-04-07T00:27:57.697Z,12.20
2023-04-07T00:30:24.964Z,12.20
2023-04-07T00:32:52.265Z,12.20
2023-04-07T00:35:19.472Z,12.20
2023-04-07T00:37:48.766Z,12.20
2023-04-07T00:40:20.113Z,12.20
2023-04-07T00:42:47.270Z,12.20
2023-04-07T00:45:19.352Z,12.10
2023-04-07T00:47:46.539Z,12.10
2023-04-07T00:50:16.264Z,12.10
2023-04-07T00:52:46.344Z,12.20
2023-04-07T00:55:15.971Z,12.20
2023-04-07T00:57:46.877Z,12.20
2023-04-07T01:00:16.759Z,12.20
2023-04-07T01:02:56.205Z,12.20
2023-04-07T01:05:45.464Z,12.20
2023-04-07T01:08:24.922Z,12.20
2023-04-07T01:10:57.320Z,12.20
2023-04-07T01:13:38.685Z,12.20
2023-04-07T01:16:12.587Z,12.30
2023-04-07T01:18:44.243Z,12.20
2023-04-07T01:21:15.568Z,12.20
2023-04-07T01:24:01.656Z,12.20
2023-04-07T01:26:33.503Z,12.20
2023-04-07T01:29:11.319Z,12.20
2023-04-07T01:31:41.829Z,12.20
2023-04-07T01:34:13.392Z,12.10
2023-04-07T01:36:41.762Z,12.10
2023-04-07T01:39:12.206Z,12.10
2023-04-07T01:41:41.276Z,12.10
2023-04-07T01:44:13.598Z,12.10
2023-04-07T01:46:45.617Z,12.10
2023-04-07T01:49:16.033Z,12.10
2023-04-07T01:51:50.542Z,12.10
2023-04-07T01:54:18.876Z,12.00
2023-04-07T01:56:48.175Z,12.00
2023-04-07T01:59:20.056Z,12.00
2023-04-07T02:01:47.962Z,12.00
2023-04-07T02:04:39.237Z,12.00
2023-04-07T02:07:19.671Z,12.00
2023-04-07T02:09:51.045Z,11.90
2023-04-07T02:12:18.313Z,11.90
2023-04-07T02:14:48.148Z,11.90
2023-04-07T02:17:16.560Z,11.80
2023-04-07T02:19:50.080Z,11.80
2023-04-07T02:22:19.960Z,11.80
2023-04-07T02:24:47.254Z,11.70
2023-04-07T02:27:17.577Z,11.60
2023-04-07T02:29:44.698Z,11.60
2023-04-07T02:32:17.936Z,11.60
2023-04-07T02:34:46.224Z,11.60
2023-04-07T02:37:16.058Z,11.50
2023-04-07T02:39:43.204Z,11.50
2023-04-07T02:42:12.839Z,11.50
2023-04-07T02:44:39.987Z,11.50
2023-04-07T02:47:11.612Z,11.40
2023-04-07T02:49:43.359Z,11.40
2023-04-07T02:52:10.628Z,11.40
2023-04-07T02:54:37.762Z,11.30
2023-04-07T02:57:04.898Z,11.30
2023-04-07T02:59:34.625Z,11.30
2023-04-07T03:02:01.861Z,11.20
2023-04-07T03:04:31.902Z,11.20
2023-04-07T03:07:01.668Z,11.10
2023-04-07T03:09:28.802Z,11.10
2023-04-07T03:11:58.442Z,11.10
2023-04-07T03:14:28.096Z,11.00
2023-04-07T03:16:56.553Z,11.00
2023-04-07T03:19:28.900Z,11.10
2023-04-07T03:21:56.277Z,11.00
2023-04-07T03:24:26.096Z,11.00
2023-04-07T03:26:56.145Z,10.90
2023-04-07T03:29:27.641Z,11.00
2023-04-07T03:31:56.998Z,10.90
2023-04-07T03:34:24.228Z,11.00
2023-04-07T03:36:56.153Z,11.00
2023-04-07T03:39:23.296Z,11.00
2023-04-07T03:41:51.741Z,11.00
2023-04-07T03:44:19.116Z,11.00
2023-04-07T03:46:50.545Z,11.00
2023-04-07T03:49:20.277Z,10.90
2023-04-07T03:51:49.844Z,10.90
2023-04-07T03:54:19.235Z,11.00
2023-04-07T03:56:48.489Z,11.00
2023-04-07T03:59:18.303Z,11.00
2023-04-07T04:01:47.660Z,11.00
2023-04-07T04:04:14.894Z,11.00
2023-04-07T04:06:44.498Z,11.00
2023-04-07T04:09:11.625Z,11.00
2023-04-07T04:11:38.755Z,11.00
2023-04-07T04:14:06.554Z,11.00
2023-04-07T04:16:35.942Z,11.00
2023-04-07T04:19:07.998Z,11.00
2023-04-07T04:21:35.202Z,11.10
2023-04-07T04:24:04.704Z,11.00
2023-04-07T04:26:31.997Z,11.00
2023-04-07T04:29:03.814Z,11.00
2023-04-07T04:31:33.742Z,11.00
2023-04-07T04:34:05.426Z,11.00
2023-04-07T04:36:32.791Z,11.00
2023-04-07T04:38:59.947Z,11.00
2023-04-07T04:41:29.579Z,11.00
2023-04-07T04:43:56.843Z,11.00
2023-04-07T04:46:25.714Z,11.00
2023-04-07T04:48:55.415Z,11.00
2023-04-07T04:51:25.053Z,11.00
2023-04-07T04:53:57.117Z,11.00
2023-04-07T04:56:24.428Z,11.00
2023-04-07T04:58:53.876Z,11.00
2023-04-07T05:01:21.115Z,11.00
2023-04-07T05:03:50.710Z,11.00
2023-04-07T05:06:18.094Z,11.00
2023-04-07T05:08:45.479Z,11.00
2023-04-07T05:11:19.131Z,11.00
2023-04-07T05:13:48.425Z,11.00
2023-04-07T05:16:15.658Z,11.00
2023-04-07T05:18:45.156Z,11.00
2023-04-07T05:21:12.256Z,11.00
2023-04-07T05:23:41.818Z,10.90
2023-04-07T05:26:09.002Z,10.90
2023-04-07T05:28:36.263Z,10.90
2023-04-07T05:31:07.803Z,10.80
2023-04-07T05:33:35.420Z,10.80
2023-04-07T05:36:07.562Z,10.80
2023-04-07T05:38:36.830Z,10.80
2023-04-07T05:41:04.038Z,10.80
2023-04-07T05:43:31.146Z,10.80
2023-04-07T05:45:58.282Z,10.70
2023-04-07T05:48:25.533Z,10.80
2023-04-07T05:50:52.703Z,10.80
2023-04-07T05:53:22.549Z,10.80
2023-04-07T05:55:49.684Z,10.80
2023-04-07T05:58:16.962Z,10.80
2023-04-07T06:00:46.613Z,10.80
2023-04-07T06:03:13.826Z,10.80
2023-04-07T06:05:46.909Z,10.80
2023-04-07T06:08:21.060Z,10.80
2023-04-07T06:10:48.382Z,10.80
2023-04-07T06:13:20.523Z,10.80
2023-04-07T06:15:52.411Z,10.80
2023-04-07T06:18:21.778Z,10.80
2023-04-07T06:20:48.930Z,10.90
2023-04-07T06:23:18.497Z,10.90
2023-04-07T06:25:51.806Z,11.00
2023-04-07T06:28:19.456Z,11.00
2023-04-07T06:30:47.302Z,11.00
2023-04-07T06:33:14.458Z,11.10
2023-04-07T06:35:44.307Z,11.10
2023-04-07T06:38:16.229Z,11.20
2023-04-07T06:40:43.335Z,11.20
2023-04-07T06:43:10.522Z,11.30
2023-04-07T06:45:37.830Z,11.30
2023-04-07T06:48:07.558Z,11.40
2023-04-07T06:50:39.475Z,11.40
2023-04-07T06:53:11.328Z,11.40
2023-04-07T06:55:40.635Z,11.50
2023-04-07T06:58:07.890Z,11.50
2023-04-07T07:00:36.080Z,11.50
2023-04-07T07:03:07.786Z,11.50
2023-04-07T07:05:39.447Z,11.60
2023-04-07T07:08:11.236Z,11.60
2023-04-07T07:10:41.189Z,11.70
2023-04-07T07:13:08.289Z,11.70
2023-04-07T07:15:37.856Z,11.70
2023-04-07T07:18:07.193Z,11.80
2023-04-07T07:20:39.200Z,11.80
2023-04-07T07:23:08.934Z,11.80
2023-04-07T07:25:36.659Z,11.80
2023-04-07T07:28:06.257Z,11.80
2023-04-07T07:30:35.574Z,11.80
2023-04-07T07:33:05.167Z,11.90
2023-04-07T07:35:34.464Z,11.90
2023-04-07T07:38:06.781Z,12.00
2023-04-07T07:40:36.375Z,12.00
2023-04-07T07:43:08.254Z,12.00
2023-04-07T07:45:35.400Z,12.00
2023-04-07T07:48:02.582Z,12.00
2023-04-07T07:50:30.443Z,12.00
2023-04-07T07:52:57.645Z,12.00
2023-04-07T07:55:31.250Z,12.10
2023-04-07T07:57:58.442Z,12.10
2023-04-07T08:00:25.614Z,12.20
2023-04-07T08:02:53.217Z,12.20
2023-04-07T08:05:20.636Z,12.20
2023-04-07T08:07:54.692Z,12.20
2023-04-07T08:10:26.436Z,12.30
2023-04-07T08:12:55.927Z,12.30
2023-04-07T08:15:25.608Z,12.40
2023-04-07T08:17:54.686Z,12.40
2023-04-07T08:20:26.686Z,12.50
2023-04-07T08:22:53.998Z,12.50
2023-04-07T08:25:23.505Z,12.40
2023-04-07T08:27:50.947Z,12.50
2023-04-07T08:30:18.162Z,12.50
2023-04-07T08:32:45.794Z,12.50
2023-04-07T08:35:13.055Z,12.50
2023-04-07T08:37:41.233Z,12.50
2023-04-07T08:40:11.860Z,12.50
2023-04-07T08:42:49.165Z,12.60
2023-04-07T08:45:19.063Z,12.60
2023-04-07T08:47:59.092Z,12.60
2023-04-07T08:50:28.261Z,12.60
2023-04-07T08:53:03.399Z,12.60
2023-04-07T08:55:31.580Z,12.60
2023-04-07T08:58:02.217Z,12.60
2023-04-07T09:00:32.687Z,12.60
2023-04-07T09:03:03.667Z,12.60
2023-04-07T09:05:33.995Z,12.70
2023-04-07T09:08:04.360Z,12.80
2023-04-07T09:10:39.240Z,12.80
2023-04-07T09:13:06.719Z,12.80
2023-04-07T09:15:34.613Z,12.80
2023-04-07T09:18:04.976Z,12.80
2023-04-07T09:20:59.299Z,12.90
2023-04-07T09:23:34.835Z,13.00
2023-04-07T09:26:23.115Z,13.00
2023-04-07T09:29:00.097Z,13.00
2023-04-07T09:31:52.083Z,13.00
2023-04-07T09:34:29.902Z,13.10
2023-04-07T09:37:05.634Z,13.10
2023-04-07T09:39:35.533Z,13.00
2023-04-07T09:42:07.896Z,13.00
2023-04-07T09:44:43.231Z,13.00
2023-04-07T09:47:11.167Z,13.00
2023-04-07T09:49:55.213Z,13.00
2023-04-07T09:52:49.048Z,13.00
2023-04-07T09:55:17.435Z,13.10
2023-04-07T09:57:45.522Z,13.10
2023-04-07T10:00:13.157Z,13.10
2023-04-07T10:02:43.123Z,13.20
2023-04-07T10:05:13.894Z,13.20
2023-04-07T10:07:42.731Z,13.20
2023-04-07T10:10:12.960Z,13.30
2023-04-07T10:12:43.757Z,13.30
2023-04-07T10:15:15.944Z,13.40
2023-04-07T10:17:49.936Z,13.40
2023-04-07T10:20:23.198Z,13.50
2023-04-07T10:22:55.563Z,13.60
2023-04-07T10:25:28.675Z,13.60
2023-04-07T10:28:09.691Z,13.60
2023-04-07T10:30:37.097Z,13.70
2023-04-07T10:33:05.221Z,13.70
2023-04-07T10:36:08.642Z,13.70
2023-04-07T10:38:38.341Z,13.70
2023-04-07T10:41:34.747Z,13.70
2023-04-07T10:44:04.524Z,13.60
2023-04-07T10:46:47.285Z,13.60
2023-04-07T10:49:19.055Z,13.60
2023-04-07T10:52:12.143Z,13.50
2023-04-07T10:54:42.946Z,13.50
2023-04-07T10:57:14.161Z,13.50
2023-04-07T11:00:05.602Z,13.40
2023-04-07T11:02:33.612Z,13.50
2023-04-07T11:05:03.440Z,13.50
2023-04-07T11:07:55.381Z,13.50
2023-04-07T11:10:27.863Z,13.40
2023-04-07T11:13:10.607Z,13.30
2023-04-07T11:15:40.903Z,13.30
2023-04-07T11:18:14.405Z,13.30
2023-04-07T11:20:45.873Z,13.30
2023-04-07T11:23:16.759Z,13.30
2023-04-07T11:25:48.890Z,13.30
2023-04-07T11:28:16.798Z,13.30
2023-04-07T11:30:54.164Z,13.30
2023-04-07T11:33:27.281Z,13.30
2023-04-07T11:36:00.045Z,13.40
2023-04-07T11:38:38.052Z,13.40
2023-04-07T11:41:15.988Z,13.50
2023-04-07T11:43:49.362Z,13.60
2023-04-07T11:46:20.068Z,13.60
2023-04-07T11:48:49.510Z,13.60
2023-04-07T11:51:23.967Z,13.60
2023-04-07T11:53:59.995Z,13.50
2023-04-07T11:56:28.155Z,13.50
2023-04-07T11:59:02.673Z,13.50
2023-04-07T12:01:45.040Z,13.50
2023-04-07T12:04:18.757Z,13.50
2023-04-07T12:06:49.052Z,13.40
2023-04-07T12:09:48.742Z,13.50
2023-04-07T12:12:29.273Z,13.40
2023-04-07T12:14:57.367Z,13.40
2023-04-07T12:17:28.130Z,13.40
2023-04-07T12:19:58.296Z,13.50
2023-04-07T12:22:25.890Z,13.50
2023-04-07T12:24:52.977Z,13.50
2023-04-07T12:27:36.046Z,13.50
2023-04-07T12:30:09.944Z,13.40
2023-04-07T12:32:39.356Z,13.40
2023-04-07T12:35:06.946Z,13.30
2023-04-07T12:37:34.156Z,13.20
2023-04-07T12:40:01.342Z,13.20
2023-04-07T12:42:28.774Z,13.20
2023-04-07T12:44:56.834Z,13.10
2023-04-07T12:47:26.363Z,13.10
2023-04-07T12:49:53.492Z,13.10
2023-04-07T12:52:20.982Z,13.10
2023-04-07T12:54:48.124Z,13.10
2023-04-07T12:57:16.184Z,13.10
2023-04-07T12:59:43.426Z,13.10
2023-04-07T13:02:11.925Z,13.20
2023-04-07T13:04:43.570Z,13.20
2023-04-07T13:07:12.871Z,13.30
2023-04-07T13:09:43.452Z,13.30
2023-04-07T13:12:15.584Z,13.30
2023-04-07T13:14:59.159Z,13.30
2023-04-07T13:17:32.113Z,13.30
2023-04-07T13:19:59.293Z,13.40
2023-04-07T13:22:29.276Z,13.50
2023-04-07T13:25:00.223Z,13.60
2023-04-07T13:27:30.577Z,13.70
2023-04-07T13:30:00.266Z,13.80
2023-04-07T13:32:27.784Z,13.90
2023-04-07T13:34:54.946Z,13.90
2023-04-07T13:37:24.517Z,13.90
2023-04-07T13:39:57.583Z,14.00
2023-04-07T13:42:27.275Z,13.90
2023-04-07T13:44:54.665Z,13.80
2023-04-07T13:47:22.610Z,13.80
2023-04-07T13:49:54.859Z,13.70
2023-04-07T13:52:22.026Z,13.70
2023-04-07T13:54:54.045Z,13.70
2023-04-07T13:57:23.487Z,13.60
2023-04-07T13:59:54.335Z,13.60
2023-04-07T14:02:21.888Z,13.60
2023-04-07T14:04:49.266Z,13.40
2023-04-07T14:07:16.813Z,13.40
2023-04-07T14:09:48.188Z,13.40
2023-04-07T14:12:18.085Z,13.40
2023-04-07T14:14:45.313Z,13.30
2023-04-07T14:17:17.099Z,13.30
2023-04-07T14:19:51.115Z,13.30
2023-04-07T14:22:20.928Z,13.30
2023-04-07T14:24:48.080Z,13.30
2023-04-07T14:27:21.011Z,13.40
2023-04-07T14:29:49.271Z,13.40
2023-04-07T14:32:18.719Z,13.40
2023-04-07T14:34:52.968Z,13.40
2023-04-07T14:37:26.192Z,13.40
2023-04-07T14:40:02.552Z,13.40
2023-04-07T14:42:36.992Z,13.40
2023-04-07T14:45:08.985Z,13.40
2023-04-07T14:47:36.149Z,13.40
2023-04-07T14:50:03.864Z,13.40
2023-04-07T14:52:30.988Z,13.40
2023-04-07T14:55:00.680Z,13.40
2023-04-07T14:57:29.725Z,13.30
2023-04-07T14:59:59.316Z,13.30
2023-04-07T15:02:29.549Z,13.20
2023-04-07T15:04:59.482Z,13.20
2023-04-07T15:07:29.240Z,13.30
2023-04-07T15:09:59.792Z,13.20
2023-04-07T15:12:29.786Z,13.30
2023-04-07T15:15:01.696Z,13.30
2023-04-07T15:17:42.943Z,13.30
2023-04-07T15:20:13.773Z,13.30
2023-04-07T15:22:41.055Z,13.30
2023-04-07T15:25:08.725Z,13.30
2023-04-07T15:27:38.439Z,13.30
2023-04-07T15:30:06.159Z,13.30
2023-04-07T15:32:35.553Z,13.40
2023-04-07T15:35:05.522Z,13.30
2023-04-07T15:37:32.665Z,13.30
2023-04-07T15:40:01.914Z,13.30
2023-04-07T15:42:29.164Z,13.30
2023-04-07T15:44:56.344Z,13.20
2023-04-07T15:47:23.556Z,13.20
2023-04-07T15:49:52.939Z,13.10
2023-04-07T15:52:20.126Z,13.20
2023-04-07T15:54:47.241Z,13.10
2023-04-07T15:57:21.213Z,13.10
2023-04-07T15:59:52.135Z,13.10
2023-04-07T16:02:19.409Z,13.10
2023-04-07T16:04:47.620Z,13.10
2023-04-07T16:07:17.032Z,13.10
2023-04-07T16:09:44.139Z,13.10
2023-04-07T16:12:13.390Z,13.20
2023-04-07T16:14:42.637Z,13.10
2023-04-07T16:17:12.444Z,13.10
2023-04-07T16:19:43.956Z,13.10
2023-04-07T16:22:13.644Z,13.10
2023-04-07T16:24:43.223Z,13.10
2023-04-07T16:27:11.196Z,13.00
2023-04-07T16:29:38.407Z,13.00
2023-04-07T16:32:08.137Z,13.00
2023-04-07T16:34:37.891Z,12.90
2023-04-07T16:37:05.022Z,13.00
2023-04-07T16:39:34.256Z,13.10
2023-04-07T16:42:03.718Z,13.10
2023-04-07T16:44:32.831Z,13.10
2023-04-07T16:47:03.409Z,13.10
2023-04-07T16:49:30.874Z,13.10
2023-04-07T16:52:01.003Z,13.10
2023-04-07T16:54:28.210Z,13.10
2023-04-07T16:57:00.062Z,13.10
2023-04-07T16:59:27.264Z,13.00
2023-04-07T17:01:56.707Z,13.00
2023-04-07T17:04:26.317Z,12.90
2023-04-07T17:06:58.194Z,12.90
2023-04-07T17:09:28.467Z,12.80
2023-04-07T17:11:57.912Z,12.80
2023-04-07T17:14:25.220Z,12.80
2023-04-07T17:16:57.240Z,12.70
2023-04-07T17:19:27.230Z,12.70
2023-04-07T17:21:56.667Z,12.70
2023-04-07T17:24:26.391Z,12.60
2023-04-07T17:26:58.104Z,12.60
2023-04-07T17:29:29.251Z,12.60
2023-04-07T17:31:58.851Z,12.50
2023-04-07T17:34:26.112Z,12.50
2023-04-07T17:36:55.595Z,12.50
2023-04-07T17:39:27.251Z,12.40
2023-04-07T17:41:54.424Z,12.40
2023-04-07T17:44:23.830Z,12.40
2023-04-07T17:46:51.052Z,12.30
2023-04-07T17:49:21.380Z,12.30
2023-04-07T17:51:48.521Z,12.20
2023-04-07T17:54:16.156Z,12.20
2023-04-07T17:56:46.158Z,12.20
2023-04-07T17:59:13.204Z,12.20
2023-04-07T18:01:40.429Z,12.20
2023-04-07T18:04:07.728Z,12.20
2023-04-07T18:06:35.214Z,12.20
2023-04-07T18:09:04.903Z,12.20
2023-04-07T18:11:32.767Z,12.20
2023-04-07T18:14:00.122Z,12.20
2023-04-07T18:16:29.908Z,12.30
2023-04-07T18:18:57.598Z,12.30
2023-04-07T18:21:29.440Z,12.30
2023-04-07T18:23:56.900Z,12.30
2023-04-07T18:26:24.272Z,12.30
2023-04-07T18:28:53.933Z,12.20
2023-04-07T18:31:21.146Z,12.20
2023-04-07T18:33:52.717Z,12.10
2023-04-07T18:36:22.132Z,12.10
2023-04-07T18:38:49.305Z,12.10
2023-04-07T18:41:16.522Z,12.10
2023-04-07T18:43:46.002Z,12.10
2023-04-07T18:46:13.464Z,12.10
2023-04-07T18:48:43.990Z,12.10
2023-04-07T18:51:11.809Z,12.10
2023-04-07T18:53:39.017Z,12.10
2023-04-07T18:56:08.507Z,12.10
2023-04-07T18:58:43.885Z,12.00
2023-04-07T19:01:14.306Z,12.10
2023-04-07T19:03:43.924Z,12.10
2023-04-07T19:06:17.089Z,12.10
2023-04-07T19:08:44.322Z,12.00
2023-04-07T19:11:11.912Z,12.00
2023-04-07T19:13:39.227Z,12.00
2023-04-07T19:16:07.669Z,12.00
2023-04-07T19:18:34.945Z,12.00
2023-04-07T19:21:05.136Z,11.90
2023-04-07T19:23:32.535Z,11.90
2023-04-07T19:26:00.951Z,11.90
2023-04-07T19:28:28.128Z,12.00
2023-04-07T19:30:56.004Z,11.90
2023-04-07T19:33:25.855Z,11.90
2023-04-07T19:35:53.053Z,11.90
2023-04-07T19:38:20.399Z,12.00
2023-04-07T19:40:47.644Z,11.90
2023-04-07T19:43:16.482Z,11.90
2023-04-07T19:45:43.704Z,11.90
2023-04-07T19:48:12.929Z,11.90
2023-04-07T19:50:49.556Z,11.90
2023-04-07T19:53:26.094Z,11.90
2023-04-07T19:55:58.558Z,11.90
2023-04-07T19:58:25.870Z,11.90
2023-04-07T20:00:58.092Z,11.80
2023-04-07T20:03:27.987Z,11.90
2023-04-07T20:06:00.051Z,11.80
2023-04-07T20:08:27.273Z,11.80
2023-04-07T20:10:54.419Z,11.80
2023-04-07T20:13:28.103Z,11.80
2023-04-07T20:15:55.518Z,11.80
2023-04-07T20:18:24.881Z,11.80
2023-04-07T20:21:06.152Z,11.80
2023-04-07T20:23:34.061Z,11.80
2023-04-07T20:26:07.249Z,11.80
2023-04-07T20:28:34.396Z,11.80
2023-04-07T20:31:03.789Z,11.80
2023-04-07T20:33:33.184Z,11.80
2023-04-07T20:36:03.500Z,11.80
2023-04-07T20:38:30.765Z,11.80
2023-04-07T20:41:04.859Z,11.90
2023-04-07T20:43:34.199Z,11.80
2023-04-07T20:46:03.933Z,11.80
2023-04-07T20:48:33.782Z,11.80
2023-04-07T20:51:05.931Z,11.80
2023-04-07T20:53:35.289Z,11.80
2023-04-07T20:56:03.078Z,11.80
2023-04-07T20:58:30.256Z,11.80
2023-04-07T21:01:01.603Z,11.90
2023-04-07T21:03:35.941Z,11.80
2023-04-07T21:06:06.002Z,11.80
2023-04-07T21:08:35.160Z,11.80
2023-04-07T21:11:04.766Z,11.80
2023-04-07T21:13:31.946Z,11.80
2023-04-07T21:16:03.753Z,11.80
2023-04-07T21:18:31.010Z,11.80
2023-04-07T21:21:02.174Z,11.80
2023-04-07T21:23:31.328Z,11.80
2023-04-07T21:26:03.257Z,11.80
2023-04-07T21:28:35.408Z,11.80
2023-04-07T21:31:03.822Z,11.80
2023-04-07T21:33:35.847Z,11.80
2023-04-07T21:36:06.463Z,11.80
2023-04-07T21:38:36.491Z,11.80
2023-04-07T21:41:06.147Z,11.80
2023-04-07T21:43:34.682Z,11.80
2023-04-07T21:46:01.838Z,11.80
2023-04-07T21:48:30.181Z,11.80
2023-04-07T21:50:59.557Z,11.70
2023-04-07T21:53:28.800Z,11.70
2023-04-07T21:55:58.054Z,11.70
2023-04-07T21:58:29.685Z,11.70
2023-04-07T22:01:00.042Z,11.70
2023-04-07T22:03:30.089Z,11.70
2023-04-07T22:06:01.171Z,11.70
2023-04-07T22:08:30.840Z,11.60
2023-04-07T22:11:02.733Z,11.60
2023-04-07T22:13:29.887Z,11.60
2023-04-07T22:16:02.134Z,11.70
2023-04-07T22:18:29.554Z,11.70
2023-04-07T22:20:56.722Z,11.70
2023-04-07T22:23:23.927Z,11.70
2023-04-07T22:25:51.212Z,11.70
2023-04-07T22:28:18.380Z,11.60
2023-04-07T22:30:47.981Z,11.60
2023-04-07T22:33:15.096Z,11.60
2023-04-07T22:35:42.274Z,11.60
2023-04-07T22:38:17.248Z,11.60
2023-04-07T22:40:49.433Z,11.60
2023-04-07T22:43:18.613Z,11.60
2023-04-07T22:45:48.302Z,11.50
2023-04-07T22:48:16.239Z,11.50
2023-04-07T22:50:45.697Z,11.50
2023-04-07T22:53:12.868Z,11.60
2023-04-07T22:55:40.823Z,11.50
2023-04-07T22:58:12.630Z,11.50
2023-04-07T23:00:39.886Z,11.60
2023-04-07T23:03:09.378Z,11.50
2023-04-07T23:05:37.040Z,11.50
2023-04-07T23:08:04.319Z,11.50
2023-04-07T23:10:32.321Z,11.50
2023-04-07T23:13:01.874Z,11.60
2023-04-07T23:15:31.119Z,11.50
2023-04-07T23:18:02.898Z,11.50
2023-04-07T23:20:33.592Z,11.50
2023-04-07T23:23:03.434Z,11.50
2023-04-07T23:25:35.597Z,11.40
2023-04-07T23:28:02.728Z,11.50
2023-04-07T23:30:32.121Z,11.40
2023-04-07T23:32:59.386Z,11.40
2023-04-07T23:35:26.642Z,11.40
2023-04-07T23:37:56.027Z,11.40
2023-04-07T23:40:27.755Z,11.30
2023-04-07T23:42:54.887Z,11.30
2023-04-07T23:45:24.592Z,11.40
2023-04-07T23:47:51.968Z,11.40
2023-04-07T23:50:23.880Z,11.40
2023-04-07T23:52:51.029Z,11.40
2023-04-07T23:55:20.632Z,11.40
2023-04-07T23:57:47.772Z,11.40
